sensor_id;sensor_type;location;lat;lon;timestamp;pressure;altitude;pressure_sealevel;temperature;humidity
43161;BME280;40968;52.342;5.528;2023-05-03T00:00:09;102980.34;;;8.20;58.24
43161;BME280;40968;52.342;5.528;2023-05-03T00:02:38;102986.72;;;8.16;58.89
43161;BME280;40968;52.342;5.528;2023-05-03T00:05:05;102822.31;;;7.17;58.35
43161;BME280;40968;52.342;5.528;2023-05-03T00:07:35;103020.94;;;8.33;58.97
43161;BME280;40968;52.342;5.528;2023-05-03T00:10:02;102891.78;;;7.44;58.44
43161;BME280;40968;52.342;5.528;2023-05-03T00:12:28;103023.03;;;8.21;58.46
43161;BME280;40968;52.342;5.528;2023-05-03T00:14:55;103020.53;;;8.17;58.56
43161;BME280;40968;52.342;5.528;2023-05-03T00:17:21;102958.38;;;7.80;58.62
43161;BME280;40968;52.342;5.528;2023-05-03T00:19:48;102955.81;;;7.77;59.09
43161;BME280;40968;52.342;5.528;2023-05-03T00:22:15;103023.38;;;8.10;59.10
43161;BME280;40968;52.342;5.528;2023-05-03T00:24:43;103021.63;;;8.09;58.69
43161;BME280;40968;52.342;5.528;2023-05-03T00:27:10;102977.91;;;7.82;58.25
43161;BME280;40968;52.342;5.528;2023-05-03T00:29:36;103021.81;;;8.02;58.51
43161;BME280;40968;52.342;5.528;2023-05-03T00:32:03;102978.09;;;7.76;59.30
43161;BME280;40968;52.342;5.528;2023-05-03T00:34:30;102993.00;;;7.83;58.73
43161;BME280;40968;52.342;5.528;2023-05-03T00:36:56;102982.78;;;7.66;59.22
43161;BME280;40968;52.342;5.528;2023-05-03T00:39:23;102963.81;;;7.45;60.22
43161;BME280;40968;52.342;5.528;2023-05-03T00:41:55;103029.28;;;7.90;59.76
43161;BME280;40968;52.342;5.528;2023-05-03T00:44:22;102992.59;;;7.66;59.81
43161;BME280;40968;52.342;5.528;2023-05-03T00:46:49;103019.56;;;7.88;60.18
43161;BME280;40968;52.342;5.528;2023-05-03T00:49:16;103017.88;;;7.85;59.12
43161;BME280;40968;52.342;5.528;2023-05-03T00:51:43;103011.69;;;7.83;59.60
43161;BME280;40968;52.342;5.528;2023-05-03T00:54:10;102969.75;;;7.55;59.72
43161;BME280;40968;52.342;5.528;2023-05-03T00:56:37;102958.38;;;7.49;59.38
43161;BME280;40968;52.342;5.528;2023-05-03T00:59:06;103011.13;;;7.72;59.38
43161;BME280;40968;52.342;5.528;2023-05-03T01:01:33;103012.94;;;7.70;59.39
43161;BME280;40968;52.342;5.528;2023-05-03T01:04:00;103017.47;;;7.68;59.80
43161;BME280;40968;52.342;5.528;2023-05-03T01:06:35;102982.59;;;7.41;59.70
43161;BME280;40968;52.342;5.528;2023-05-03T01:09:09;102863.47;;;6.74;60.11
43161;BME280;40968;52.342;5.528;2023-05-03T01:11:46;102961.59;;;7.27;61.20
43161;BME280;40968;52.342;5.528;2023-05-03T01:14:21;102984.41;;;7.39;60.54
43161;BME280;40968;52.342;5.528;2023-05-03T01:16:51;102946.97;;;7.09;60.78
43161;BME280;40968;52.342;5.528;2023-05-03T01:19:27;103014.34;;;7.50;60.79
43161;BME280;40968;52.342;5.528;2023-05-03T01:21:58;103015.31;;;7.47;61.04
43161;BME280;40968;52.342;5.528;2023-05-03T01:24:31;102821.06;;;6.28;61.60
43161;BME280;40968;52.342;5.528;2023-05-03T01:27:00;103027.84;;;7.45;60.98
43161;BME280;40968;52.342;5.528;2023-05-03T01:29:27;103011.19;;;7.36;61.42
43161;BME280;40968;52.342;5.528;2023-05-03T01:31:58;102957.72;;;7.06;60.88
43161;BME280;40968;52.342;5.528;2023-05-03T01:34:31;103013.69;;;7.42;61.28
43161;BME280;40968;52.342;5.528;2023-05-03T01:36:59;102997.09;;;7.30;60.75
43161;BME280;40968;52.342;5.528;2023-05-03T01:39:33;103018.19;;;7.40;60.56
43161;BME280;40968;52.342;5.528;2023-05-03T01:42:02;103009.41;;;7.35;60.19
43161;BME280;40968;52.342;5.528;2023-05-03T01:44:30;102955.22;;;7.00;60.91
43161;BME280;40968;52.342;5.528;2023-05-03T01:46:57;102924.72;;;6.75;60.17
43161;BME280;40968;52.342;5.528;2023-05-03T01:49:24;103008.84;;;7.22;60.33
43161;BME280;40968;52.342;5.528;2023-05-03T01:51:51;102946.75;;;6.82;60.67
43161;BME280;40968;52.342;5.528;2023-05-03T01:54:17;102836.41;;;6.19;60.54
43161;BME280;40968;52.342;5.528;2023-05-03T01:56:46;103008.84;;;7.22;61.79
43161;BME280;40968;52.342;5.528;2023-05-03T01:59:14;103013.22;;;7.24;61.27
43161;BME280;40968;52.342;5.528;2023-05-03T02:01:40;102979.03;;;7.06;61.47
43161;BME280;40968;52.342;5.528;2023-05-03T02:04:07;102920.25;;;6.76;62.05
43161;BME280;40968;52.342;5.528;2023-05-03T02:06:33;102876.53;;;6.47;61.32
43161;BME280;40968;52.342;5.528;2023-05-03T02:09:00;103009.75;;;7.22;61.93
43161;BME280;40968;52.342;5.528;2023-05-03T02:11:26;103004.50;;;7.19;61.63
43161;BME280;40968;52.342;5.528;2023-05-03T02:13:53;102854.81;;;6.28;60.97
43161;BME280;40968;52.342;5.528;2023-05-03T02:16:21;102992.31;;;7.09;61.42
43161;BME280;40968;52.342;5.528;2023-05-03T02:18:47;102996.88;;;7.04;60.77
43161;BME280;40968;52.342;5.528;2023-05-03T02:21:16;102934.75;;;6.66;60.88
43161;BME280;40968;52.342;5.528;2023-05-03T02:23:42;102831.53;;;5.98;61.17
43161;BME280;40968;52.342;5.528;2023-05-03T02:26:09;102889.31;;;6.33;60.96
43161;BME280;40968;52.342;5.528;2023-05-03T02:28:35;102991.88;;;6.90;62.04
43161;BME280;40968;52.342;5.528;2023-05-03T02:31:02;102834.00;;;6.08;62.21
43161;BME280;40968;52.342;5.528;2023-05-03T02:33:31;102890.94;;;6.40;62.05
43161;BME280;40968;52.342;5.528;2023-05-03T02:35:58;102801.66;;;5.86;61.63
43161;BME280;40968;52.342;5.528;2023-05-03T02:38:25;102926.88;;;6.59;62.80
43161;BME280;40968;52.342;5.528;2023-05-03T02:40:51;102983.78;;;6.93;62.95
43161;BME280;40968;52.342;5.528;2023-05-03T02:43:18;102977.59;;;6.92;62.48
43161;BME280;40968;52.342;5.528;2023-05-03T02:45:44;102930.22;;;6.68;64.01
43161;BME280;40968;52.342;5.528;2023-05-03T02:48:11;102900.41;;;6.52;63.06
43161;BME280;40968;52.342;5.528;2023-05-03T02:50:39;102916.91;;;6.68;63.64
43161;BME280;40968;52.342;5.528;2023-05-03T02:53:05;102965.13;;;6.93;63.33
43161;BME280;40968;52.342;5.528;2023-05-03T02:55:33;102851.25;;;6.27;64.44
43161;BME280;40968;52.342;5.528;2023-05-03T02:57:59;102843.38;;;6.24;64.86
43161;BME280;40968;52.342;5.528;2023-05-03T03:00:26;102956.22;;;6.94;65.64
43161;BME280;40968;52.342;5.528;2023-05-03T03:02:53;102957.03;;;6.97;65.69
43161;BME280;40968;52.342;5.528;2023-05-03T03:05:19;102880.78;;;6.56;65.35
43161;BME280;40968;52.342;5.528;2023-05-03T03:07:47;102867.66;;;6.48;64.13
43161;BME280;40968;52.342;5.528;2023-05-03T03:10:14;102930.91;;;6.76;63.93
43161;BME280;40968;52.342;5.528;2023-05-03T03:12:41;102966.03;;;6.93;64.23
43161;BME280;40968;52.342;5.528;2023-05-03T03:15:09;102962.50;;;6.91;63.67
43161;BME280;40968;52.342;5.528;2023-05-03T03:17:35;102980.25;;;6.92;64.12
43161;BME280;40968;52.342;5.528;2023-05-03T03:20:04;102981.97;;;6.95;63.95
43161;BME280;40968;52.342;5.528;2023-05-03T03:22:31;102646.69;;;4.97;64.36
43161;BME280;40968;52.342;5.528;2023-05-03T03:24:59;102920.47;;;6.67;64.69
43161;BME280;40968;52.342;5.528;2023-05-03T03:27:26;102876.75;;;6.39;64.78
43161;BME280;40968;52.342;5.528;2023-05-03T03:29:52;102982.69;;;7.02;64.45
43161;BME280;40968;52.342;5.528;2023-05-03T03:32:19;102982.78;;;6.99;63.10
43161;BME280;40968;52.342;5.528;2023-05-03T03:34:45;102980.16;;;6.97;63.97
43161;BME280;40968;52.342;5.528;2023-05-03T03:37:12;102629.19;;;4.89;64.18
43161;BME280;40968;52.342;5.528;2023-05-03T03:39:39;102981.91;;;6.98;65.33
43161;BME280;40968;52.342;5.528;2023-05-03T03:42:09;102960.03;;;6.84;64.60
43161;BME280;40968;52.342;5.528;2023-05-03T03:44:36;102912.13;;;6.46;63.28
43161;BME280;40968;52.342;5.528;2023-05-03T03:47:02;102942.78;;;6.62;63.19
43161;BME280;40968;52.342;5.528;2023-05-03T03:49:29;102992.97;;;6.81;63.00
43161;BME280;40968;52.342;5.528;2023-05-03T03:51:55;102993.13;;;6.75;63.63
43161;BME280;40968;52.342;5.528;2023-05-03T03:54:22;102961.75;;;6.50;63.28
43161;BME280;40968;52.342;5.528;2023-05-03T03:56:49;102990.91;;;6.55;62.96
43161;BME280;40968;52.342;5.528;2023-05-03T03:59:17;102907.94;;;5.92;63.10
43161;BME280;40968;52.342;5.528;2023-05-03T04:01:44;102946.56;;;6.13;63.06
43161;BME280;40968;52.342;5.528;2023-05-03T04:04:11;103000.22;;;6.37;63.90
43161;BME280;40968;52.342;5.528;2023-05-03T04:06:37;102841.66;;;5.40;64.26
43161;BME280;40968;52.342;5.528;2023-05-03T04:09:05;103005.81;;;6.24;64.08
43161;BME280;40968;52.342;5.528;2023-05-03T04:11:31;103000.69;;;6.15;64.61
43161;BME280;40968;52.342;5.528;2023-05-03T04:13:58;102993.66;;;6.11;64.78
43161;BME280;40968;52.342;5.528;2023-05-03T04:16:26;102963.28;;;5.76;64.52
43161;BME280;40968;52.342;5.528;2023-05-03T04:18:52;103014.38;;;5.93;64.64
43161;BME280;40968;52.342;5.528;2023-05-03T04:21:19;103012.69;;;5.89;65.20
43161;BME280;40968;52.342;5.528;2023-05-03T04:23:45;103022.47;;;5.89;65.34
43161;BME280;40968;52.342;5.528;2023-05-03T04:26:12;102951.53;;;5.41;65.05
43161;BME280;40968;52.342;5.528;2023-05-03T04:28:38;102965.59;;;5.49;65.51
43161;BME280;40968;52.342;5.528;2023-05-03T04:31:05;102988.56;;;5.53;65.45
43161;BME280;40968;52.342;5.528;2023-05-03T04:33:33;102949.94;;;5.30;66.45
43161;BME280;40968;52.342;5.528;2023-05-03T04:36:00;103038.69;;;5.75;66.22
43161;BME280;40968;52.342;5.528;2023-05-03T04:38:27;103032.53;;;5.73;66.30
43161;BME280;40968;52.342;5.528;2023-05-03T04:40:53;102985.22;;;5.42;66.33
43161;BME280;40968;52.342;5.528;2023-05-03T04:43:20;102979.97;;;5.39;66.66
43161;BME280;40968;52.342;5.528;2023-05-03T04:45:47;103036.97;;;5.74;66.23
43161;BME280;40968;52.342;5.528;2023-05-03T04:48:14;102776.66;;;4.13;65.91
43161;BME280;40968;52.342;5.528;2023-05-03T04:50:43;103013.47;;;5.49;66.04
43161;BME280;40968;52.342;5.528;2023-05-03T04:53:10;102985.31;;;5.36;66.48
43161;BME280;40968;52.342;5.528;2023-05-03T04:55:36;103015.19;;;5.50;66.75
43161;BME280;40968;52.342;5.528;2023-05-03T04:58:03;102969.47;;;5.31;67.67
43161;BME280;40968;52.342;5.528;2023-05-03T05:00:30;103057.16;;;5.84;66.98
43161;BME280;40968;52.342;5.528;2023-05-03T05:02:56;103050.81;;;5.91;68.76
43161;BME280;40968;52.342;5.528;2023-05-03T05:05:23;102917.44;;;5.18;67.76
43161;BME280;40968;52.342;5.528;2023-05-03T05:07:51;103050.78;;;5.93;66.97
43161;BME280;40968;52.342;5.528;2023-05-03T05:10:18;102718.56;;;3.96;66.41
43161;BME280;40968;52.342;5.528;2023-05-03T05:12:44;102872.84;;;4.82;67.45
43161;BME280;40968;52.342;5.528;2023-05-03T05:15:11;103047.25;;;5.92;66.99
43161;BME280;40968;52.342;5.528;2023-05-03T05:17:37;102987.81;;;5.46;67.01
43161;BME280;40968;52.342;5.528;2023-05-03T05:20:05;102998.97;;;5.65;67.51
43161;BME280;40968;52.342;5.528;2023-05-03T05:22:34;103058.69;;;5.99;67.61
43161;BME280;40968;52.342;5.528;2023-05-03T05:25:03;103003.31;;;5.71;67.53
43161;BME280;40968;52.342;5.528;2023-05-03T05:27:29;103004.25;;;5.69;67.51
43161;BME280;40968;52.342;5.528;2023-05-03T05:29:56;103013.06;;;5.71;67.41
43161;BME280;40968;52.342;5.528;2023-05-03T05:32:23;103063.00;;;6.05;68.32
43161;BME280;40968;52.342;5.528;2023-05-03T05:34:49;102819.94;;;4.70;68.53
43161;BME280;40968;52.342;5.528;2023-05-03T05:37:19;102977.69;;;5.65;68.96
43161;BME280;40968;52.342;5.528;2023-05-03T05:39:46;103016.13;;;5.94;68.56
43161;BME280;40968;52.342;5.528;2023-05-03T05:42:14;103066.16;;;6.25;69.30
43161;BME280;40968;52.342;5.528;2023-05-03T05:44:41;103030.09;;;6.09;68.69
43161;BME280;40968;52.342;5.528;2023-05-03T05:47:07;103066.84;;;6.34;68.88
43161;BME280;40968;52.342;5.528;2023-05-03T05:49:34;102978.84;;;5.97;69.48
43161;BME280;40968;52.342;5.528;2023-05-03T05:52:01;103063.03;;;6.47;69.44
43161;BME280;40968;52.342;5.528;2023-05-03T05:54:28;103063.78;;;6.54;69.51
43161;BME280;40968;52.342;5.528;2023-05-03T05:56:54;103060.03;;;6.62;70.13
43161;BME280;40968;52.342;5.528;2023-05-03T05:59:22;103068.75;;;6.71;69.90
43161;BME280;40968;52.342;5.528;2023-05-03T06:01:49;102953.66;;;6.14;69.87
43161;BME280;40968;52.342;5.528;2023-05-03T06:04:16;102981.63;;;6.34;70.11
43161;BME280;40968;52.342;5.528;2023-05-03T06:06:42;103065.50;;;6.95;69.93
43161;BME280;40968;52.342;5.528;2023-05-03T06:09:09;103030.38;;;6.78;69.83
43161;BME280;40968;52.342;5.528;2023-05-03T06:11:36;103065.84;;;7.19;68.62
43161;BME280;40968;52.342;5.528;2023-05-03T06:14:03;102846.59;;;6.00;67.60
43161;BME280;40968;52.342;5.528;2023-05-03T06:16:35;103076.06;;;7.36;67.20
43161;BME280;40968;52.342;5.528;2023-05-03T06:19:02;103064.38;;;7.42;66.77
43161;BME280;40968;52.342;5.528;2023-05-03T06:21:29;103071.50;;;7.41;65.95
43161;BME280;40968;52.342;5.528;2023-05-03T06:23:55;102953.16;;;6.75;65.83
43161;BME280;40968;52.342;5.528;2023-05-03T06:26:22;103067.81;;;7.47;65.80
43161;BME280;40968;52.342;5.528;2023-05-03T06:28:49;103057.13;;;7.47;65.65
43161;BME280;40968;52.342;5.528;2023-05-03T06:31:16;103018.66;;;7.21;64.54
43161;BME280;40968;52.342;5.528;2023-05-03T06:33:44;102990.78;;;6.99;64.81
43161;BME280;40968;52.342;5.528;2023-05-03T06:36:11;103079.19;;;7.54;64.41
43161;BME280;40968;52.342;5.528;2023-05-03T06:38:38;103069.41;;;7.54;62.89
43161;BME280;40968;52.342;5.528;2023-05-03T06:41:05;102969.47;;;6.99;62.51
43161;BME280;40968;52.342;5.528;2023-05-03T06:43:31;103066.69;;;7.56;62.84
43161;BME280;40968;52.342;5.528;2023-05-03T06:45:58;102830.97;;;6.23;62.83
43161;BME280;40968;52.342;5.528;2023-05-03T06:48:24;103007.84;;;7.27;62.47
43161;BME280;40968;52.342;5.528;2023-05-03T06:50:53;103012.78;;;7.43;61.82
43161;BME280;40968;52.342;5.528;2023-05-03T06:53:19;103034.63;;;7.57;61.73
43161;BME280;40968;52.342;5.528;2023-05-03T06:55:46;103007.56;;;7.38;61.57
43161;BME280;40968;52.342;5.528;2023-05-03T06:58:13;103002.13;;;7.41;60.43
43161;BME280;40968;52.342;5.528;2023-05-03T07:00:40;103065.25;;;7.77;60.53
43161;BME280;40968;52.342;5.528;2023-05-03T07:03:07;102990.78;;;7.33;60.12
43161;BME280;40968;52.342;5.528;2023-05-03T07:05:34;103067.69;;;7.85;59.28
43161;BME280;40968;52.342;5.528;2023-05-03T07:08:02;103057.81;;;7.88;59.01
43161;BME280;40968;52.342;5.528;2023-05-03T07:10:29;103001.88;;;7.52;60.01
43161;BME280;40968;52.342;5.528;2023-05-03T07:12:55;102842.28;;;6.68;59.50
43161;BME280;40968;52.342;5.528;2023-05-03T07:15:22;103014.28;;;7.86;58.79
43161;BME280;40968;52.342;5.528;2023-05-03T07:17:49;103034.19;;;8.06;57.82
43161;BME280;40968;52.342;5.528;2023-05-03T07:20:15;102915.03;;;7.39;57.71
43161;BME280;40968;52.342;5.528;2023-05-03T07:22:42;102963.06;;;7.72;57.54
43161;BME280;40968;52.342;5.528;2023-05-03T07:25:10;102917.34;;;7.53;57.53
43161;BME280;40968;52.342;5.528;2023-05-03T07:27:38;103023.88;;;8.23;56.41
43161;BME280;40968;52.342;5.528;2023-05-03T07:30:06;103019.38;;;8.25;56.14
43161;BME280;40968;52.342;5.528;2023-05-03T07:32:33;102934.41;;;7.78;55.73
43161;BME280;40968;52.342;5.528;2023-05-03T07:35:00;102934.31;;;7.82;56.27
43161;BME280;40968;52.342;5.528;2023-05-03T07:37:26;102967.44;;;8.06;56.47
43161;BME280;40968;52.342;5.528;2023-05-03T07:39:53;102897.31;;;7.69;56.82
43161;BME280;40968;52.342;5.528;2023-05-03T07:42:21;102981.16;;;8.23;56.61
43161;BME280;40968;52.342;5.528;2023-05-03T07:44:48;102958.19;;;8.18;56.36
43161;BME280;40968;52.342;5.528;2023-05-03T07:47:14;102955.34;;;8.22;55.70
43161;BME280;40968;52.342;5.528;2023-05-03T07:49:41;102984.75;;;8.52;55.16
43161;BME280;40968;52.342;5.528;2023-05-03T07:52:08;102949.53;;;8.38;55.51
43161;BME280;40968;52.342;5.528;2023-05-03T07:54:34;103007.16;;;8.76;56.12
43161;BME280;40968;52.342;5.528;2023-05-03T07:57:01;103014.09;;;8.82;55.28
43161;BME280;40968;52.342;5.528;2023-05-03T07:59:29;102925.44;;;8.39;55.70
43161;BME280;40968;52.342;5.528;2023-05-03T08:01:56;103006.63;;;8.93;55.09
43161;BME280;40968;52.342;5.528;2023-05-03T08:04:23;103019.78;;;9.00;55.78
43161;BME280;40968;52.342;5.528;2023-05-03T08:06:49;102946.72;;;8.71;56.25
43161;BME280;40968;52.342;5.528;2023-05-03T08:09:16;102907.47;;;8.44;56.92
43161;BME280;40968;52.342;5.528;2023-05-03T08:11:43;103005.69;;;9.21;55.89
43161;BME280;40968;52.342;5.528;2023-05-03T08:14:09;102833.56;;;8.17;55.34
43161;BME280;40968;52.342;5.528;2023-05-03T08:16:38;102912.81;;;8.73;55.11
43161;BME280;40968;52.342;5.528;2023-05-03T08:19:04;103006.16;;;9.34;55.10
43161;BME280;40968;52.342;5.528;2023-05-03T08:21:32;103018.31;;;9.43;54.88
43161;BME280;40968;52.342;5.528;2023-05-03T08:23:59;102959.38;;;9.19;53.90
43161;BME280;40968;52.342;5.528;2023-05-03T08:26:26;102943.00;;;9.28;54.15
43161;BME280;40968;52.342;5.528;2023-05-03T08:28:54;102940.81;;;9.40;53.73
43161;BME280;40968;52.342;5.528;2023-05-03T08:31:20;102980.56;;;9.76;53.17
43161;BME280;40968;52.342;5.528;2023-05-03T08:33:48;102921.88;;;9.46;53.21
43161;BME280;40968;52.342;5.528;2023-05-03T08:36:16;102984.63;;;9.88;53.11
43161;BME280;40968;52.342;5.528;2023-05-03T08:38:42;102952.22;;;9.70;53.31
43161;BME280;40968;52.342;5.528;2023-05-03T08:41:16;102948.91;;;9.63;53.51
43161;BME280;40968;52.342;5.528;2023-05-03T08:43:44;102946.78;;;9.72;52.88
43161;BME280;40968;52.342;5.528;2023-05-03T08:46:12;102988.34;;;10.07;52.94
43161;BME280;40968;52.342;5.528;2023-05-03T08:48:39;103006.78;;;10.15;53.09
43161;BME280;40968;52.342;5.528;2023-05-03T08:51:07;102996.53;;;10.26;54.00
43161;BME280;40968;52.342;5.528;2023-05-03T08:53:35;102871.59;;;9.54;52.43
43161;BME280;40968;52.342;5.528;2023-05-03T08:56:05;102971.94;;;10.15;51.90
43161;BME280;40968;52.342;5.528;2023-05-03T08:58:33;103011.94;;;10.45;51.71
43161;BME280;40968;52.342;5.528;2023-05-03T09:01:03;103014.22;;;10.56;50.77
43161;BME280;40968;52.342;5.528;2023-05-03T09:03:30;102918.72;;;10.06;50.60
43161;BME280;40968;52.342;5.528;2023-05-03T09:05:57;102968.06;;;10.48;50.42
43161;BME280;40968;52.342;5.528;2023-05-03T09:08:27;102991.13;;;10.74;48.76
43161;BME280;40968;52.342;5.528;2023-05-03T09:10:54;102998.19;;;10.76;48.46
43161;BME280;40968;52.342;5.528;2023-05-03T09:13:21;102985.91;;;10.71;48.42
43161;BME280;40968;52.342;5.528;2023-05-03T09:15:55;103017.56;;;10.83;48.48
43161;BME280;40968;52.342;5.528;2023-05-03T09:18:22;102836.63;;;9.83;48.73
43161;BME280;40968;52.342;5.528;2023-05-03T09:20:50;103017.00;;;10.97;48.95
43161;BME280;40968;52.342;5.528;2023-05-03T09:23:18;102976.41;;;10.84;48.66
43161;BME280;40968;52.342;5.528;2023-05-03T09:25:47;102963.06;;;10.83;48.21
43161;BME280;40968;52.342;5.528;2023-05-03T09:28:14;102992.56;;;11.05;48.68
43161;BME280;40968;52.342;5.528;2023-05-03T09:30:42;102972.25;;;10.98;48.17
43161;BME280;40968;52.342;5.528;2023-05-03T09:33:09;102998.34;;;11.16;48.48
43161;BME280;40968;52.342;5.528;2023-05-03T09:35:36;102994.44;;;11.23;48.23
43161;BME280;40968;52.342;5.528;2023-05-03T09:38:03;103020.56;;;11.40;47.48
43161;BME280;40968;52.342;5.528;2023-05-03T09:40:30;103017.28;;;11.34;46.92
43161;BME280;40968;52.342;5.528;2023-05-03T09:43:11;102927.59;;;10.76;47.65
43161;BME280;40968;52.342;5.528;2023-05-03T09:45:38;103022.50;;;11.37;47.65
43161;BME280;40968;52.342;5.528;2023-05-03T09:48:06;102849.34;;;10.44;47.50
43161;BME280;40968;52.342;5.528;2023-05-03T09:50:34;103018.16;;;11.55;47.21
43161;BME280;40968;52.342;5.528;2023-05-03T09:53:02;103012.31;;;11.66;47.26
43161;BME280;40968;52.342;5.528;2023-05-03T09:55:33;103007.41;;;11.75;47.34
43161;BME280;40968;52.342;5.528;2023-05-03T09:58:01;103001.47;;;11.88;46.45
43161;BME280;40968;52.342;5.528;2023-05-03T10:00:33;102962.09;;;11.68;46.98
43161;BME280;40968;52.342;5.528;2023-05-03T10:03:05;102851.53;;;11.18;46.60
43161;BME280;40968;52.342;5.528;2023-05-03T10:05:33;102950.66;;;11.83;46.11
43161;BME280;40968;52.342;5.528;2023-05-03T10:08:03;102726.97;;;10.64;45.83
43161;BME280;40968;52.342;5.528;2023-05-03T10:10:31;102953.16;;;12.07;45.84
43161;BME280;40968;52.342;5.528;2023-05-03T10:13:00;102678.00;;;10.60;46.20
43161;BME280;40968;52.342;5.528;2023-05-03T10:15:28;102983.09;;;12.56;46.67
43161;BME280;40968;52.342;5.528;2023-05-03T10:18:00;102984.81;;;12.57;45.02
43161;BME280;40968;52.342;5.528;2023-05-03T10:20:34;102931.28;;;12.34;45.72
43161;BME280;40968;52.342;5.528;2023-05-03T10:23:06;102980.44;;;12.74;45.74
43161;BME280;40968;52.342;5.528;2023-05-03T10:25:34;102986.94;;;12.87;45.28
43161;BME280;40968;52.342;5.528;2023-05-03T10:28:01;102947.69;;;12.83;45.58
43161;BME280;40968;52.342;5.528;2023-05-03T10:30:29;102979.69;;;13.07;45.03
43161;BME280;40968;52.342;5.528;2023-05-03T10:32:59;102937.34;;;12.93;44.25
43161;BME280;40968;52.342;5.528;2023-05-03T10:35:50;102889.97;;;12.71;43.66
43161;BME280;40968;52.342;5.528;2023-05-03T10:38:20;102790.72;;;12.13;43.65
43161;BME280;40968;52.342;5.528;2023-05-03T10:40:48;102951.91;;;13.06;43.42
43161;BME280;40968;52.342;5.528;2023-05-03T10:43:40;102973.19;;;13.29;42.91
43161;BME280;40968;52.342;5.528;2023-05-03T10:46:10;102845.91;;;12.56;43.02
43161;BME280;40968;52.342;5.528;2023-05-03T10:49:20;102935.81;;;13.22;42.64
43161;BME280;40968;52.342;5.528;2023-05-03T10:51:46;102942.28;;;13.36;41.95
43161;BME280;40968;52.342;5.528;2023-05-03T10:54:13;102953.63;;;13.60;42.37
43161;BME280;40968;52.342;5.528;2023-05-03T10:56:48;102918.94;;;13.54;42.03
43161;BME280;40968;52.342;5.528;2023-05-03T10:59:15;102930.75;;;13.85;41.80
43161;BME280;40968;52.342;5.528;2023-05-03T11:01:43;102966.78;;;14.32;42.18
43161;BME280;40968;52.342;5.528;2023-05-03T11:04:12;102892.75;;;14.05;40.64
43161;BME280;40968;52.342;5.528;2023-05-03T11:06:41;102967.13;;;14.57;40.30
43161;BME280;40968;52.342;5.528;2023-05-03T11:09:10;102968.69;;;14.62;39.79
43161;BME280;40968;52.342;5.528;2023-05-03T11:11:39;102861.44;;;14.03;40.63
43161;BME280;40968;52.342;5.528;2023-05-03T11:14:07;102883.16;;;14.32;40.32
43161;BME280;40968;52.342;5.528;2023-05-03T11:16:35;102939.84;;;14.94;39.82
43161;BME280;40968;52.342;5.528;2023-05-03T11:19:04;102881.91;;;14.69;39.62
43161;BME280;40968;52.342;5.528;2023-05-03T11:21:31;102911.00;;;14.95;40.11
43161;BME280;40968;52.342;5.528;2023-05-03T11:24:00;102866.22;;;14.76;39.56
43161;BME280;40968;52.342;5.528;2023-05-03T11:26:26;102927.00;;;15.28;39.82
43161;BME280;40968;52.342;5.528;2023-05-03T11:28:53;102741.34;;;14.27;39.60
43161;BME280;40968;52.342;5.528;2023-05-03T11:31:20;102888.03;;;15.32;39.96
43161;BME280;40968;52.342;5.528;2023-05-03T11:33:48;102899.50;;;15.65;39.47
43161;BME280;40968;52.342;5.528;2023-05-03T11:36:15;102929.38;;;15.92;39.46
43161;BME280;40968;52.342;5.528;2023-05-03T11:38:42;102887.84;;;15.79;39.10
43161;BME280;40968;52.342;5.528;2023-05-03T11:41:12;102878.69;;;15.81;38.89
43161;BME280;40968;52.342;5.528;2023-05-03T11:43:41;102947.06;;;16.25;38.86
43161;BME280;40968;52.342;5.528;2023-05-03T11:46:08;102835.72;;;15.62;38.10
43161;BME280;40968;52.342;5.528;2023-05-03T11:48:35;102931.53;;;16.29;37.75
43161;BME280;40968;52.342;5.528;2023-05-03T11:51:06;102930.38;;;16.18;37.87
43161;BME280;40968;52.342;5.528;2023-05-03T11:53:36;102906.78;;;16.20;38.32
43161;BME280;40968;52.342;5.528;2023-05-03T11:56:06;102919.13;;;16.39;38.30
43161;BME280;40968;52.342;5.528;2023-05-03T11:58:34;102828.16;;;15.96;37.24
43161;BME280;40968;52.342;5.528;2023-05-03T12:01:01;102910.63;;;16.58;37.91
43161;BME280;40968;52.342;5.528;2023-05-03T12:03:30;102847.47;;;16.17;37.23
43161;BME280;40968;52.342;5.528;2023-05-03T12:05:57;102875.63;;;16.42;36.18
43161;BME280;40968;52.342;5.528;2023-05-03T12:08:27;102838.13;;;16.36;37.38
43161;BME280;40968;52.342;5.528;2023-05-03T12:10:55;102902.44;;;17.00;37.66
43161;BME280;40968;52.342;5.528;2023-05-03T12:13:30;102731.72;;;16.22;37.33
43161;BME280;40968;52.342;5.528;2023-05-03T12:16:01;102852.47;;;17.04;35.67
43161;BME280;40968;52.342;5.528;2023-05-03T12:18:44;102701.84;;;16.11;36.15
43161;BME280;40968;52.342;5.528;2023-05-03T12:21:11;102826.66;;;16.85;36.17
43161;BME280;40968;52.342;5.528;2023-05-03T12:23:39;102886.53;;;17.34;35.88
43161;BME280;40968;52.342;5.528;2023-05-03T12:26:06;102721.38;;;16.42;35.71
43161;BME280;40968;52.342;5.528;2023-05-03T12:28:32;102874.59;;;17.49;35.58
43161;BME280;40968;52.342;5.528;2023-05-03T12:31:00;102847.50;;;17.36;35.38
43161;BME280;40968;52.342;5.528;2023-05-03T12:33:27;102884.13;;;17.55;35.56
43161;BME280;40968;52.342;5.528;2023-05-03T12:35:54;102879.13;;;17.62;35.29
43161;BME280;40968;52.342;5.528;2023-05-03T12:38:20;102869.56;;;17.69;36.25
43161;BME280;40968;52.342;5.528;2023-05-03T12:40:47;102834.63;;;17.77;36.74
43161;BME280;40968;52.342;5.528;2023-05-03T12:43:14;102868.28;;;18.36;35.59
43161;BME280;40968;52.342;5.528;2023-05-03T12:45:40;102800.09;;;18.16;34.82
43161;BME280;40968;52.342;5.528;2023-05-03T12:48:08;102791.19;;;18.14;33.75
43161;BME280;40968;52.342;5.528;2023-05-03T12:50:35;102755.50;;;17.96;33.98
43161;BME280;40968;52.342;5.528;2023-05-03T12:53:02;102752.41;;;18.01;33.98
43161;BME280;40968;52.342;5.528;2023-05-03T12:55:28;102855.09;;;18.67;34.39
43161;BME280;40968;52.342;5.528;2023-05-03T12:57:58;102777.75;;;18.37;34.30
43161;BME280;40968;52.342;5.528;2023-05-03T13:00:25;102780.53;;;18.71;34.28